createdAt,value
2023-05-16T00:01:08.222Z,4.33
2023-05-16T00:03:37.045Z,5.10
2023-05-16T00:06:05.249Z,4.23
2023-05-16T00:08:33.198Z,4.50
2023-05-16T00:11:01.510Z,3.80
2023-05-16T00:13:30.556Z,4.90
2023-05-16T00:16:02.544Z,4.47
2023-05-16T00:18:31.988Z,4.10
2023-05-16T00:21:00.170Z,5.10
2023-05-16T00:23:28.128Z,4.50
2023-05-16T00:25:56.123Z,4.70
2023-05-16T00:28:24.253Z,3.93
2023-05-16T00:30:52.047Z,5.10
2023-05-16T00:33:20.015Z,4.33
2023-05-16T00:35:49.194Z,4.93
2023-05-16T00:38:18.965Z,4.80
2023-05-16T00:40:47.267Z,5.10
2023-05-16T00:43:15.117Z,4.40
2023-05-16T00:45:43.047Z,4.40
2023-05-16T00:48:12.644Z,4.80
2023-05-16T00:50:41.146Z,4.30
2023-05-16T00:53:10.417Z,4.10
2023-05-16T00:55:39.046Z,4.33
2023-05-16T00:58:09.988Z,4.30
2023-05-16T01:00:37.944Z,4.50
2023-05-16T01:03:07.058Z,4.80
2023-05-16T01:05:35.438Z,4.30
2023-05-16T01:08:03.310Z,4.20
2023-05-16T01:10:54.002Z,4.50
2023-05-16T01:13:30.125Z,4.60
2023-05-16T01:16:08.650Z,5.20
2023-05-16T01:18:44.326Z,5.20
2023-05-16T01:21:19.753Z,4.27
2023-05-16T01:23:57.278Z,4.53
2023-05-16T01:26:28.756Z,5.10
2023-05-16T01:28:57.279Z,4.47
2023-05-16T01:31:25.555Z,4.03
2023-05-16T01:33:53.609Z,3.90
2023-05-16T01:36:26.523Z,3.90
2023-05-16T01:39:03.420Z,4.90
2023-05-16T01:41:42.583Z,4.13
2023-05-16T01:44:18.880Z,4.33
2023-05-16T01:46:48.619Z,4.30
2023-05-16T01:49:22.135Z,3.50
2023-05-16T01:51:53.180Z,3.70
2023-05-16T01:54:25.387Z,4.13
2023-05-16T01:56:56.030Z,3.90
2023-05-16T01:59:26.006Z,3.67
2023-05-16T02:01:55.739Z,4.17
2023-05-16T02:04:24.334Z,3.93
2023-05-16T02:06:52.435Z,3.77
2023-05-16T02:09:20.501Z,3.93
2023-05-16T02:11:48.540Z,3.90
2023-05-16T02:14:17.850Z,3.63
2023-05-16T02:16:45.789Z,3.97
2023-05-16T02:19:13.740Z,3.87
2023-05-16T02:21:41.663Z,3.67
2023-05-16T02:24:09.591Z,3.60
2023-05-16T02:26:37.506Z,3.23
2023-05-16T02:29:07.102Z,3.40
2023-05-16T02:31:36.512Z,3.60
2023-05-16T02:34:04.508Z,3.67
2023-05-16T02:36:34.317Z,3.93
2023-05-16T02:39:02.304Z,3.50
2023-05-16T02:41:30.153Z,4.10
2023-05-16T02:43:58.095Z,3.93
2023-05-16T02:46:28.378Z,3.10
2023-05-16T02:48:58.108Z,3.47
2023-05-16T02:51:27.499Z,3.53
2023-05-16T02:53:57.101Z,4.70
2023-05-16T02:56:25.119Z,4.10
2023-05-16T02:58:54.559Z,3.60
2023-05-16T03:01:22.567Z,3.87
2023-05-16T03:03:51.056Z,3.60
2023-05-16T03:06:20.347Z,3.53
2023-05-16T03:08:48.189Z,3.83
2023-05-16T03:11:20.860Z,3.43
2023-05-16T03:13:48.994Z,3.90
2023-05-16T03:16:17.087Z,3.53
2023-05-16T03:18:45.215Z,4.10
2023-05-16T03:21:13.479Z,4.60
2023-05-16T03:23:42.682Z,3.90
2023-05-16T03:26:10.564Z,4.17
2023-05-16T03:28:38.755Z,3.70
2023-05-16T03:31:06.968Z,4.33
2023-05-16T03:33:35.120Z,4.20
2023-05-16T03:36:03.410Z,3.93
2023-05-16T03:38:31.458Z,3.80
2023-05-16T03:41:01.289Z,3.77
2023-05-16T03:43:29.261Z,4.33
2023-05-16T03:45:57.263Z,4.33
2023-05-16T03:48:25.325Z,4.13
2023-05-16T03:50:53.143Z,4.20
2023-05-16T03:53:21.088Z,4.07
2023-05-16T03:55:49.114Z,3.83
2023-05-16T03:58:18.511Z,4.13
2023-05-16T04:00:46.883Z,3.87
2023-05-16T04:03:14.993Z,3.70
2023-05-16T04:05:43.379Z,3.53
2023-05-16T04:08:11.423Z,4.33
2023-05-16T04:10:39.269Z,3.80
2023-05-16T04:13:07.251Z,3.87
2023-05-16T04:15:36.521Z,4.10
2023-05-16T04:18:05.069Z,4.07
2023-05-16T04:20:33.210Z,3.93
2023-05-16T04:23:01.126Z,3.67
2023-05-16T04:25:29.263Z,5.37
2023-05-16T04:27:57.399Z,4.47
2023-05-16T04:30:25.386Z,4.10
2023-05-16T04:32:55.074Z,3.40
2023-05-16T04:35:23.377Z,3.70
2023-05-16T04:37:51.389Z,3.63
2023-05-16T04:40:19.363Z,5.37
2023-05-16T04:42:47.931Z,4.10
2023-05-16T04:45:16.126Z,4.80
2023-05-16T04:47:44.105Z,4.47
2023-05-16T04:50:13.585Z,4.23
2023-05-16T04:52:41.577Z,3.97
2023-05-16T04:55:10.891Z,4.40
2023-05-16T04:57:38.791Z,4.23
2023-05-16T05:00:10.290Z,4.00
2023-05-16T05:02:38.662Z,4.00
2023-05-16T05:05:08.389Z,4.57
2023-05-16T05:07:37.817Z,4.27
2023-05-16T05:10:07.698Z,4.50
2023-05-16T05:12:36.356Z,4.20
2023-05-16T05:15:04.715Z,4.10
2023-05-16T05:17:32.777Z,4.77
2023-05-16T05:20:02.856Z,4.13
2023-05-16T05:22:31.205Z,4.00
2023-05-16T05:25:00.478Z,4.00
2023-05-16T05:27:28.686Z,3.40
2023-05-16T05:29:56.709Z,3.60
2023-05-16T05:32:24.656Z,3.30
2023-05-16T05:34:52.938Z,3.33
2023-05-16T05:37:21.145Z,3.50
2023-05-16T05:39:48.984Z,4.07
2023-05-16T05:42:18.280Z,4.00
2023-05-16T05:44:46.160Z,3.80
2023-05-16T05:47:14.472Z,4.40
2023-05-16T05:49:42.426Z,3.73
2023-05-16T05:52:10.629Z,4.60
2023-05-16T05:54:38.707Z,3.97
2023-05-16T05:57:06.954Z,4.93
2023-05-16T05:59:36.824Z,4.30
2023-05-16T06:02:05.220Z,4.20
2023-05-16T06:04:33.127Z,4.37
2023-05-16T06:07:01.094Z,4.67
2023-05-16T06:09:28.906Z,4.40
2023-05-16T06:11:56.911Z,3.20
2023-05-16T06:14:24.752Z,3.30
2023-05-16T06:16:54.118Z,4.50
2023-05-16T06:19:22.281Z,4.03
2023-05-16T06:21:50.194Z,3.93
2023-05-16T06:24:18.091Z,3.87
2023-05-16T06:26:49.934Z,4.47
2023-05-16T06:29:18.172Z,4.00
2023-05-16T06:31:47.483Z,4.00
2023-05-16T06:34:16.850Z,4.30
2023-05-16T06:36:44.784Z,4.40
2023-05-16T06:39:12.711Z,3.73
2023-05-16T06:41:40.629Z,4.23
2023-05-16T06:44:12.705Z,3.93
2023-05-16T06:46:40.617Z,3.83
2023-05-16T06:49:08.536Z,3.87
2023-05-16T06:51:37.841Z,3.80
2023-05-16T06:54:05.760Z,4.20
2023-05-16T06:56:33.703Z,4.00
2023-05-16T06:59:02.513Z,3.80
2023-05-16T07:01:30.520Z,4.50
2023-05-16T07:03:58.602Z,4.30
2023-05-16T07:06:26.715Z,4.73
2023-05-16T07:08:56.094Z,4.07
2023-05-16T07:11:24.024Z,4.90
2023-05-16T07:13:52.036Z,4.00
2023-05-16T07:16:20.064Z,4.60
2023-05-16T07:18:48.133Z,4.10
2023-05-16T07:21:16.461Z,4.20
2023-05-16T07:23:44.328Z,4.50
2023-05-16T07:26:13.638Z,4.47
2023-05-16T07:28:42.048Z,4.43
2023-05-16T07:31:09.929Z,4.90
2023-05-16T07:33:37.899Z,4.50
2023-05-16T07:36:15.981Z,4.83
2023-05-16T07:38:44.670Z,4.90
2023-05-16T07:41:14.049Z,4.50
2023-05-16T07:43:41.975Z,5.17
2023-05-16T07:46:09.918Z,4.87
2023-05-16T07:48:38.247Z,4.70
2023-05-16T07:51:06.219Z,5.77
2023-05-16T07:53:34.633Z,5.57
2023-05-16T07:56:02.539Z,5.00
2023-05-16T07:58:32.025Z,4.80
2023-05-16T08:01:00.372Z,5.50
2023-05-16T08:03:28.529Z,5.40
2023-05-16T08:05:56.786Z,5.50
2023-05-16T08:08:24.703Z,5.03
2023-05-16T08:10:52.652Z,5.50
2023-05-16T08:13:20.629Z,5.47
2023-05-16T08:15:49.991Z,6.00
2023-05-16T08:18:20.679Z,6.87
2023-05-16T08:20:50.155Z,5.63
2023-05-16T08:23:18.104Z,5.20
2023-05-16T08:25:46.166Z,6.37
2023-05-16T08:28:14.080Z,7.10
2023-05-16T08:30:43.368Z,6.40
2023-05-16T08:33:13.593Z,6.90
2023-05-16T08:35:43.596Z,6.30
2023-05-16T08:38:11.546Z,6.90
2023-05-16T08:40:40.814Z,7.07
2023-05-16T08:43:08.960Z,6.33
2023-05-16T08:45:37.023Z,7.73
2023-05-16T08:48:09.489Z,6.73
2023-05-16T08:50:39.804Z,6.30
2023-05-16T08:53:10.369Z,6.03
2023-05-16T08:55:39.526Z,6.70
2023-05-16T08:58:07.647Z,6.50
2023-05-16T09:00:36.641Z,7.80
2023-05-16T09:03:05.990Z,7.33
2023-05-16T09:05:34.868Z,7.50
2023-05-16T09:08:04.170Z,7.50
2023-05-16T09:10:32.107Z,7.17
2023-05-16T09:12:59.954Z,6.93
2023-05-16T09:15:33.546Z,7.53
2023-05-16T09:18:03.013Z,7.40
2023-05-16T09:20:31.293Z,7.00
2023-05-16T09:23:00.934Z,7.50
2023-05-16T09:25:32.610Z,7.30
2023-05-16T09:28:03.689Z,8.30
2023-05-16T09:30:37.059Z,6.87
2023-05-16T09:33:07.765Z,6.77
2023-05-16T09:35:45.095Z,6.70
2023-05-16T09:38:17.484Z,6.60
2023-05-16T09:40:47.535Z,7.23
2023-05-16T09:43:18.034Z,6.97
2023-05-16T09:45:48.698Z,7.10
2023-05-16T09:48:18.430Z,6.90
2023-05-16T09:50:52.877Z,7.70
2023-05-16T09:53:27.881Z,6.00
2023-05-16T09:56:07.869Z,6.70
2023-05-16T09:58:37.192Z,7.80
2023-05-16T10:01:05.630Z,8.40
2023-05-16T10:03:36.000Z,7.90
2023-05-16T10:06:05.867Z,7.50
2023-05-16T10:08:36.497Z,8.40
2023-05-16T10:11:07.192Z,6.60
2023-05-16T10:13:37.711Z,6.03
2023-05-16T10:16:08.977Z,5.37
2023-05-16T10:18:38.116Z,6.33
2023-05-16T10:21:10.427Z,6.47
2023-05-16T10:23:43.020Z,6.07
2023-05-16T10:26:14.796Z,5.83
2023-05-16T10:28:43.474Z,5.60
2023-05-16T10:31:12.046Z,5.90
2023-05-16T10:33:41.024Z,6.20
2023-05-16T10:36:10.983Z,6.60
2023-05-16T10:38:39.800Z,6.53
2023-05-16T10:41:08.460Z,5.90
2023-05-16T10:43:37.826Z,7.80
2023-05-16T10:46:09.744Z,7.00
2023-05-16T10:48:39.616Z,6.77
2023-05-16T10:51:37.583Z,6.40
2023-05-16T10:54:07.789Z,6.60
2023-05-16T10:56:36.342Z,6.10
2023-05-16T10:59:05.910Z,5.90
2023-05-16T11:01:35.171Z,6.00
2023-05-16T11:04:11.508Z,6.00
2023-05-16T11:06:48.165Z,7.23
2023-05-16T11:09:25.461Z,6.97
2023-05-16T11:12:02.721Z,7.00
2023-05-16T11:14:39.438Z,7.60
2023-05-16T11:17:13.040Z,7.27
2023-05-16T11:19:43.813Z,8.20
2023-05-16T11:22:17.075Z,7.93
2023-05-16T11:24:53.458Z,7.37
2023-05-16T11:27:24.464Z,7.13
2023-05-16T11:29:54.373Z,7.03
2023-05-16T11:32:23.979Z,6.83
2023-05-16T11:34:54.465Z,7.67
2023-05-16T11:37:22.901Z,7.80
2023-05-16T11:39:51.248Z,7.57
2023-05-16T11:42:19.334Z,7.67
2023-05-16T11:44:47.426Z,10.70
2023-05-16T11:47:16.996Z,9.50
2023-05-16T11:49:45.465Z,8.97
2023-05-16T11:52:14.543Z,8.90
2023-05-16T11:54:43.281Z,8.20
2023-05-16T11:57:11.331Z,9.73
2023-05-16T11:59:39.683Z,9.30
2023-05-16T12:02:09.736Z,8.90
2023-05-16T12:04:39.535Z,9.83
2023-05-16T12:07:07.619Z,9.47
2023-05-16T12:09:35.596Z,10.80
2023-05-16T12:12:06.307Z,9.23
2023-05-16T12:14:34.765Z,8.87
2023-05-16T12:17:04.665Z,8.07
2023-05-16T12:19:33.055Z,8.83
2023-05-16T12:22:02.762Z,8.90
2023-05-16T12:24:31.960Z,7.90
2023-05-16T12:27:00.031Z,6.07
2023-05-16T12:29:28.027Z,4.10
2023-05-16T12:31:55.915Z,4.80
2023-05-16T12:34:24.299Z,7.40
2023-05-16T12:36:53.944Z,5.40
2023-05-16T12:39:24.124Z,4.43
2023-05-16T12:41:52.280Z,4.87
2023-05-16T12:44:20.644Z,5.30
2023-05-16T12:46:51.541Z,5.27
2023-05-16T12:49:21.611Z,5.70
2023-05-16T12:51:51.025Z,5.23
2023-05-16T12:54:19.375Z,6.20
2023-05-16T12:56:48.645Z,6.20
2023-05-16T12:59:16.696Z,7.17
2023-05-16T13:01:46.383Z,6.40
2023-05-16T13:04:19.049Z,5.87
2023-05-16T13:06:57.356Z,6.90
2023-05-16T13:09:30.356Z,6.77
2023-05-16T13:12:01.596Z,6.63
2023-05-16T13:14:31.720Z,7.57
2023-05-16T13:16:59.635Z,7.90
2023-05-16T13:19:27.617Z,7.60
2023-05-16T13:21:56.132Z,8.00
2023-05-16T13:24:24.018Z,7.93
2023-05-16T13:26:51.947Z,8.53
2023-05-16T13:29:21.215Z,8.57
2023-05-16T13:31:49.206Z,8.60
2023-05-16T13:34:17.243Z,9.30
2023-05-16T13:39:18.354Z,9.63
2023-05-16T13:41:48.580Z,9.60
2023-05-16T13:44:16.978Z,9.07
2023-05-16T13:46:46.757Z,10.07
2023-05-16T13:49:14.783Z,9.20
2023-05-16T13:51:43.758Z,9.33
2023-05-16T13:54:11.772Z,8.90
2023-05-16T13:56:39.678Z,9.50
2023-05-16T13:59:08.229Z,8.03
2023-05-16T14:01:37.532Z,7.73
2023-05-16T14:04:07.041Z,6.90
2023-05-16T14:06:34.999Z,7.53
2023-05-16T14:09:03.341Z,6.97
2023-05-16T14:11:31.330Z,6.97
2023-05-16T14:13:59.573Z,6.80
2023-05-16T14:16:27.732Z,7.30
2023-05-16T14:18:55.939Z,6.80
2023-05-16T14:21:25.258Z,7.10
2023-05-16T14:23:53.418Z,6.30
2023-05-16T14:26:25.201Z,5.73
2023-05-16T14:28:53.319Z,6.57
2023-05-16T14:31:21.294Z,6.10
2023-05-16T14:33:49.192Z,6.33
2023-05-16T14:36:17.150Z,7.20
2023-05-16T14:38:46.554Z,6.27
2023-05-16T14:41:14.540Z,5.40
2023-05-16T14:43:42.530Z,6.43
2023-05-16T14:46:11.022Z,5.30
2023-05-16T14:48:39.141Z,5.53
2023-05-16T14:51:07.889Z,5.10
2023-05-16T14:53:35.999Z,5.10
2023-05-16T14:56:06.125Z,4.80
2023-05-16T14:58:34.120Z,5.73
2023-05-16T15:01:02.073Z,5.40
2023-05-16T15:03:35.434Z,4.90
2023-05-16T15:06:11.810Z,4.60
2023-05-16T15:08:39.816Z,4.70
2023-05-16T15:11:09.218Z,4.90
2023-05-16T15:13:37.240Z,4.40
2023-05-16T15:16:05.837Z,5.27
2023-05-16T15:18:34.162Z,5.00
2023-05-16T15:21:02.390Z,5.10
2023-05-16T15:23:30.349Z,5.40
2023-05-16T15:25:59.323Z,8.73
2023-05-16T15:28:28.648Z,8.97
2023-05-16T15:30:56.756Z,6.07
2023-05-16T15:33:24.666Z,5.40
2023-05-16T15:35:53.033Z,5.50
2023-05-16T15:38:20.909Z,5.13
2023-05-16T15:40:55.053Z,5.73
2023-05-16T15:43:26.377Z,5.83
2023-05-16T15:45:55.703Z,5.77
2023-05-16T15:48:23.707Z,5.40
2023-05-16T15:50:51.571Z,6.40
2023-05-16T15:53:19.675Z,5.40
2023-05-16T15:55:47.981Z,5.90
2023-05-16T15:58:15.992Z,6.40
2023-05-16T16:00:45.596Z,5.63
2023-05-16T16:03:15.285Z,5.27
2023-05-16T16:05:43.322Z,5.17
2023-05-16T16:08:11.213Z,5.40
2023-05-16T16:10:39.060Z,6.17
2023-05-16T16:13:07.179Z,5.93
2023-05-16T16:15:35.997Z,5.83
2023-05-16T16:18:04.463Z,6.13
2023-05-16T16:20:34.087Z,6.50
2023-05-16T16:23:02.138Z,6.00
2023-05-16T16:25:30.369Z,5.93
2023-05-16T16:27:59.951Z,6.33
2023-05-16T16:30:28.275Z,7.13
2023-05-16T16:32:56.440Z,9.50
2023-05-16T16:35:26.269Z,8.23
2023-05-16T16:40:31.310Z,6.50
2023-05-16T16:42:59.715Z,6.90
2023-05-16T16:45:28.316Z,5.97
2023-05-16T16:47:56.648Z,6.90
2023-05-16T16:50:24.703Z,6.90
2023-05-16T16:52:53.707Z,6.80
2023-05-16T16:55:23.060Z,6.60
2023-05-16T16:57:51.028Z,6.33
2023-05-16T17:00:19.757Z,6.77
2023-05-16T17:02:47.953Z,6.33
2023-05-16T17:05:15.981Z,6.90
2023-05-16T17:07:44.170Z,9.57
2023-05-16T17:10:12.284Z,7.00
2023-05-16T17:12:48.908Z,5.90
2023-05-16T17:15:17.459Z,6.33
2023-05-16T17:17:45.904Z,6.70
2023-05-16T17:20:14.367Z,6.57
2023-05-16T17:22:42.277Z,6.47
2023-05-16T17:25:11.470Z,7.30
2023-05-16T17:27:40.611Z,6.60
2023-05-16T17:30:11.505Z,6.47
2023-05-16T17:32:39.931Z,5.53
2023-05-16T17:35:08.250Z,6.73
2023-05-16T17:37:36.472Z,6.67
2023-05-16T17:40:05.856Z,6.50
2023-05-16T17:42:33.821Z,6.33
2023-05-16T17:45:04.407Z,6.30
2023-05-16T17:47:34.620Z,5.70
2023-05-16T17:50:02.690Z,5.73
2023-05-16T17:52:32.612Z,5.40
2023-05-16T17:55:00.602Z,5.40
2023-05-16T17:57:28.703Z,6.00
2023-05-16T17:59:56.720Z,6.53
2023-05-16T18:02:24.702Z,5.80
2023-05-16T18:04:54.008Z,5.27
2023-05-16T18:07:22.232Z,6.10
2023-05-16T18:09:50.308Z,5.67
2023-05-16T18:12:18.351Z,5.63
2023-05-16T18:14:46.300Z,5.30
2023-05-16T18:17:14.473Z,6.20
2023-05-16T18:19:42.568Z,6.73
2023-05-16T18:22:13.341Z,14.70
2023-05-16T18:24:41.413Z,7.20
2023-05-16T18:27:09.533Z,7.67
2023-05-16T18:29:37.504Z,6.20
2023-05-16T18:32:06.026Z,6.30
2023-05-16T18:34:34.120Z,5.70
2023-05-16T18:37:02.150Z,6.10
2023-05-16T18:39:31.792Z,5.00
2023-05-16T18:41:59.836Z,5.90
2023-05-16T18:44:27.762Z,4.53
2023-05-16T18:46:57.578Z,5.37
2023-05-16T18:49:26.030Z,5.00
2023-05-16T18:51:54.126Z,5.50
2023-05-16T18:54:23.335Z,6.47
2023-05-16T18:56:53.728Z,5.33
2023-05-16T18:59:21.618Z,5.37
2023-05-16T19:01:49.493Z,6.70
2023-05-16T19:04:17.579Z,6.63
2023-05-16T19:06:46.114Z,5.67
2023-05-16T19:09:14.195Z,5.20
2023-05-16T19:11:42.377Z,6.27
2023-05-16T19:14:11.672Z,6.87
2023-05-16T19:16:39.647Z,6.70
2023-05-16T19:19:08.351Z,6.13
2023-05-16T19:21:36.555Z,5.40
2023-05-16T19:24:04.929Z,6.03
2023-05-16T19:26:32.905Z,5.80
2023-05-16T19:29:00.816Z,6.00
2023-05-16T19:31:30.155Z,5.70
2023-05-16T19:33:58.024Z,5.70
2023-05-16T19:36:26.142Z,5.90
2023-05-16T19:38:54.051Z,5.87
2023-05-16T19:41:22.034Z,6.23
2023-05-16T19:43:49.960Z,5.97
2023-05-16T19:46:18.013Z,5.60
2023-05-16T19:48:47.603Z,5.97
2023-05-16T19:51:16.639Z,5.60
2023-05-16T19:53:47.398Z,6.70
2023-05-16T19:56:15.242Z,5.80
2023-05-16T19:58:43.821Z,6.33
2023-05-16T20:01:11.782Z,6.97
2023-05-16T20:03:39.946Z,6.63
2023-05-16T20:06:09.377Z,6.77
2023-05-16T20:08:37.395Z,6.10
2023-05-16T20:11:05.292Z,6.63
2023-05-16T20:13:33.746Z,7.20
2023-05-16T20:16:03.031Z,6.30
2023-05-16T20:18:31.036Z,6.07
2023-05-16T20:20:59.095Z,6.50
2023-05-16T20:23:28.500Z,6.07
2023-05-16T20:25:56.522Z,6.03
2023-05-16T20:28:24.470Z,6.80
2023-05-16T20:30:52.387Z,6.40
2023-05-16T20:33:20.315Z,6.13
2023-05-16T20:35:48.428Z,6.47
2023-05-16T20:38:16.743Z,7.17
2023-05-16T20:40:47.518Z,6.00
2023-05-16T20:43:15.535Z,5.83
2023-05-16T20:45:43.540Z,6.03
2023-05-16T20:48:11.471Z,5.73
2023-05-16T20:50:39.399Z,5.77
2023-05-16T20:53:07.389Z,6.03
2023-05-16T20:55:35.369Z,5.63
2023-05-16T20:58:04.691Z,5.77
2023-05-16T21:00:33.568Z,7.07
2023-05-16T21:03:01.668Z,5.93
2023-05-16T21:05:29.769Z,5.70
2023-05-16T21:07:57.781Z,5.73
2023-05-16T21:10:26.687Z,6.07
2023-05-16T21:12:54.628Z,5.70
2023-05-16T21:15:23.983Z,5.30
2023-05-16T21:17:52.269Z,6.97
2023-05-16T21:20:20.614Z,5.23
2023-05-16T21:22:48.702Z,5.20
2023-05-16T21:25:16.866Z,6.40
2023-05-16T21:27:44.850Z,5.87
2023-05-16T21:30:14.214Z,6.17
2023-05-16T21:32:43.603Z,6.10
2023-05-16T21:35:11.531Z,6.70
2023-05-16T21:37:39.647Z,6.40
2023-05-16T21:40:09.400Z,5.97
2023-05-16T21:42:37.571Z,6.30
2023-05-16T21:45:12.399Z,6.40
2023-05-16T21:47:40.549Z,6.13
2023-05-16T21:50:10.679Z,6.20
2023-05-16T21:52:38.774Z,6.50
2023-05-16T21:55:07.855Z,7.27
2023-05-16T21:57:35.940Z,6.70
2023-05-16T22:00:06.859Z,6.80
2023-05-16T22:02:36.436Z,6.80
2023-05-16T22:05:05.074Z,6.87
2023-05-16T22:07:34.505Z,6.07
2023-05-16T22:10:03.000Z,6.93
2023-05-16T22:12:31.054Z,6.87
2023-05-16T22:14:59.003Z,6.93
2023-05-16T22:17:27.033Z,6.70
2023-05-16T22:19:57.268Z,5.83
2023-05-16T22:22:25.271Z,7.10
2023-05-16T22:24:54.960Z,7.20
2023-05-16T22:27:22.910Z,7.47
2023-05-16T22:29:50.850Z,6.90
2023-05-16T22:32:18.762Z,7.50
2023-05-16T22:34:46.634Z,7.13
2023-05-16T22:37:14.591Z,7.87
2023-05-16T22:39:42.520Z,7.70
2023-05-16T22:42:11.869Z,7.60
2023-05-16T22:44:39.703Z,6.80
2023-05-16T22:47:08.048Z,7.70
2023-05-16T22:49:35.973Z,7.70
2023-05-16T22:52:05.757Z,7.17
2023-05-16T22:54:33.744Z,6.30
2023-05-16T22:57:01.798Z,6.27
2023-05-16T22:59:31.001Z,5.80
2023-05-16T23:01:59.034Z,5.80
2023-05-16T23:04:27.091Z,5.43
2023-05-16T23:06:55.070Z,5.90
2023-05-16T23:09:23.218Z,6.03
2023-05-16T23:11:51.251Z,5.93
2023-05-16T23:14:19.135Z,5.07
2023-05-16T23:16:48.398Z,4.83
2023-05-16T23:19:16.299Z,4.93
2023-05-16T23:21:44.512Z,4.70
2023-05-16T23:24:12.427Z,4.60
2023-05-16T23:26:40.435Z,4.47
2023-05-16T23:29:09.004Z,4.97
2023-05-16T23:31:38.975Z,4.73
2023-05-16T23:34:08.475Z,4.50
2023-05-16T23:36:36.923Z,4.20
2023-05-16T23:39:05.001Z,4.50
2023-05-16T23:41:32.988Z,4.17
2023-05-16T23:44:00.918Z,4.10
2023-05-16T23:46:28.910Z,4.17
2023-05-16T23:48:57.910Z,4.30
2023-05-16T23:51:31.162Z,4.10
2023-05-16T23:54:03.475Z,4.10
2023-05-16T23:56:32.818Z,4.23
2023-05-16T23:59:00.704Z,3.73
